Terminal Aerodrome Forecast
Issued by NWS Albuquerque, NM

Home | Current Version | Previous Version | Text Only | Print | Product List | Glossary On
Versions: 1 2 3 4 5 6 7 8 9 10 11 12 13 14 15 16 17 18 19 20 21 22
808
FTUS45 KABQ 301219 AAA
TAFABQ
TAF AMD
KABQ 301219Z 3012/0112 23006KT P6SM SCT015
     FM301300 VRB05KT P6SM SCT035
     FM301600 31010KT P6SM SKC
     FM302000 31016G25KT P6SM SKC
     FM010100 31008KT P6SM SKC
     FM010800 17006KT P6SM SKC=

USA.gov is the U.S. government's official web portal to all federal, state and local government web resources and services.